Paramount Helsinki — 2CWB3 — position and weather

sailwx.info

Track history (hours):
 
Tides and Currents Weather Stations Pressure Air Temp Water Temp Dewpoint Dewpoint Depression Visibility Wind Speed Wind Dir Waves Ship Positions

Paramount Helsinki

Last reported at 2017-Jun-07 06:07 UTC. Time now 2017-Jun-26 22:30 UTC.
Position N 29°27' W 093°13'.
Warning: this ship's position is 19 days out of date.

Length 250 m; draft 7 m.

Type: Tanker. MMSI: 235076275.

Date/timePositionNaut miles runAvg speedWind from/ knotsBaromVisibWave heightAir tempDewpointWater temp
2017-Jun-07 06:07N 29°27' W 093°13'1310.9
2017-Jun-07 04:56N 29°38' W 093°19'512.2
2017-Jun-07 04:30N 29°44' W 093°20'511.2
2017-Jun-07 04:00N 29°49' W 093°21'5 9.7
2017-Jun-07 03:30N 29°54' W 093°21'4 8.7
2017-Jun-07 03:01N 29°58' W 093°20'4 8.1
2017-Jun-07 02:30N 30°02' W 093°20'4 8.3
2017-Jun-07 02:01N 30°06' W 093°20'2 4.7
2017-Jun-07 01:30N 30°09' W 093°20'1 1.6
2017-Jun-07 01:00N 30°09' W 093°20'0 0.0
2017-Jun-07 00:30N 30°10' W 093°20'0 0.0
2017-Jun-07 00:00N 30°10' W 093°20'0 0.0
2017-Jun-06 23:30N 30°10' W 093°20'0 0.0
2017-Jun-06 23:00N 30°10' W 093°20'0 0.0
2017-Jun-06 22:30N 30°10' W 093°20'0 0.0
2017-Jun-06 22:00N 30°10' W 093°20'0 0.0
2017-Jun-06 21:30N 30°10' W 093°20'0 0.0
2017-Jun-06 21:00N 30°10' W 093°20'0 0.0
2017-Jun-06 20:30N 30°10' W 093°20'0 0.0
2017-Jun-06 20:00N 30°10' W 093°20'0 0.0
2017-Jun-06 19:30N 30°10' W 093°20'0 0.0
2017-Jun-06 19:00N 30°10' W 093°20'0 0.0
2017-Jun-06 18:30N 30°10' W 093°20'0 0.0
2017-Jun-06 18:00N 30°10' W 093°20'0 0.0
2017-Jun-06 17:30N 30°10' W 093°20'0 0.0
2017-Jun-06 17:00N 30°10' W 093°20'0 0.0
2017-Jun-06 16:30N 30°10' W 093°20'0 0.0
2017-Jun-06 16:00N 30°10' W 093°20'0 0.0
2017-Jun-06 15:30N 30°10' W 093°20'0 0.0
2017-Jun-06 15:00N 30°10' W 093°20'0 0.0
2017-Jun-06 14:30N 30°10' W 093°20'0 0.0
2017-Jun-06 14:00N 30°10' W 093°20'0 0.0
2017-Jun-06 13:30N 30°10' W 093°20'0 0.0
2017-Jun-06 13:00N 30°10' W 093°20'0 0.0
2017-Jun-06 12:30N 30°10' W 093°20'0 0.0
2017-Jun-06 12:00N 30°10' W 093°20'0 0.0
2017-Jun-06 11:30N 30°10' W 093°20'0 0.0
2017-Jun-06 11:00N 30°10' W 093°20'0 0.0
2017-Jun-06 10:30N 30°10' W 093°20'0 0.0
2017-Jun-06 10:00N 30°10' W 093°20'0 0.0
2017-Jun-06 09:30N 30°10' W 093°20'0 0.0
2017-Jun-06 09:00N 30°10' W 093°20'0 0.0
2017-Jun-06 08:30N 30°10' W 093°20'0 0.0
2017-Jun-06 08:00N 30°10' W 093°20'0 0.0
2017-Jun-06 07:30N 30°10' W 093°20'0 0.0
2017-Jun-06 07:00N 30°10' W 093°20'0 0.0
2017-Jun-06 06:30N 30°10' W 093°20'0 0.0
2017-Jun-06 06:00N 30°10' W 093°20'0 0.0
2017-Jun-06 05:30N 30°10' W 093°20'0 0.0
2017-Jun-06 05:00N 30°10' W 093°20'0 0.0
2017-Jun-06 04:30N 30°10' W 093°20'0 0.0
2017-Jun-06 04:00N 30°10' W 093°20'0 0.0
2017-Jun-06 03:30N 30°10' W 093°20'0 0.0
2017-Jun-06 03:00N 30°10' W 093°20'0 0.0
2017-Jun-06 02:30N 30°10' W 093°20'0 0.0
2017-Jun-06 02:00N 30°10' W 093°20'0 0.0
2017-Jun-06 01:30N 30°10' W 093°20'0 0.0
2017-Jun-06 01:00N 30°10' W 093°20'0 0.0
2017-Jun-06 00:30N 30°10' W 093°20'0 0.0
2017-Jun-06 00:00N 30°10' W 093°20'0 0.0
2017-Jun-05 23:30N 30°10' W 093°20'0 0.0
2017-Jun-05 23:00N 30°10' W 093°20'0 0.0
2017-Jun-05 22:30N 30°10' W 093°20'0 0.0
2017-Jun-05 21:57N 30°10' W 093°20'0 0.0
2017-Jun-05 21:30N 30°10' W 093°20'0 0.0
2017-Jun-05 21:00N 30°10' W 093°20'0 0.0
2017-Jun-05 20:30N 30°10' W 093°20'0 0.0
2017-Jun-05 19:57N 30°10' W 093°20'0 0.0
2017-Jun-05 19:30N 30°10' W 093°20'0 0.0
2017-Jun-05 19:00N 30°10' W 093°20'0 0.0
2017-Jun-05 18:30N 30°10' W 093°20'0 0.0
2017-Jun-05 18:00N 30°10' W 093°20'0 0.0
2017-Jun-05 17:30N 30°10' W 093°20'0 0.1
2017-Jun-05 17:01N 30°09' W 093°20'1 1.8
2017-Jun-05 16:31N 30°09' W 093°20'2 4.4
2017-Jun-05 16:01N 30°06' W 093°20'2 4.8
2017-Jun-05 15:31N 30°04' W 093°20'3 5.9
2017-Jun-05 15:01N 30°01' W 093°20'2 3.3
2017-Jun-05 14:31N 29°59' W 093°20'6 5.6
2017-Jun-05 13:30N 29°54' W 093°21'3 6.4
2017-Jun-05 13:01N 29°51' W 093°21'3 5.8
2017-Jun-05 12:30N 29°48' W 093°21'3 6.4
2017-Jun-05 12:01N 29°45' W 093°20'4 7.0
2017-Jun-05 11:30N 29°41' W 093°20'24 9.1
2017-Jun-05 08:54N 29°18' W 093°12'  
Track history (hours):
 
Tides and Currents Weather Stations Pressure Air Temp Water Temp Dewpoint Dewpoint Depression Visibility Wind Speed Wind Dir Waves Ship Positions

Paramount Helsinki

Last reported at 2017-Jun-07 06:07 UTC. Time now 2017-Jun-26 22:30 UTC.
Position N 29°27' W 093°13'.
Warning: this ship's position is 19 days out of date.

Length 250 m; draft 7 m.

Type: Tanker. MMSI: 235076275.

Date/timePositionNaut miles runAvg speedWind from/ knotsBaromVisibWave heightAir tempDewpointWater temp
2017-Jun-07 06:07N 29°27' W 093°13'1310.9
2017-Jun-07 04:56N 29°38' W 093°19'512.2
2017-Jun-07 04:30N 29°44' W 093°20'511.2
2017-Jun-07 04:00N 29°49' W 093°21'5 9.7
2017-Jun-07 03:30N 29°54' W 093°21'4 8.7
2017-Jun-07 03:01N 29°58' W 093°20'4 8.1
2017-Jun-07 02:30N 30°02' W 093°20'4 8.3
2017-Jun-07 02:01N 30°06' W 093°20'2 4.7
2017-Jun-07 01:30N 30°09' W 093°20'1 1.6
2017-Jun-07 01:00N 30°09' W 093°20'0 0.0
2017-Jun-07 00:30N 30°10' W 093°20'0 0.0
2017-Jun-07 00:00N 30°10' W 093°20'0 0.0
2017-Jun-06 23:30N 30°10' W 093°20'0 0.0
2017-Jun-06 23:00N 30°10' W 093°20'0 0.0
2017-Jun-06 22:30N 30°10' W 093°20'0 0.0
2017-Jun-06 22:00N 30°10' W 093°20'0 0.0
2017-Jun-06 21:30N 30°10' W 093°20'0 0.0
2017-Jun-06 21:00N 30°10' W 093°20'0 0.0
2017-Jun-06 20:30N 30°10' W 093°20'0 0.0
2017-Jun-06 20:00N 30°10' W 093°20'0 0.0
2017-Jun-06 19:30N 30°10' W 093°20'0 0.0
2017-Jun-06 19:00N 30°10' W 093°20'0 0.0
2017-Jun-06 18:30N 30°10' W 093°20'0 0.0
2017-Jun-06 18:00N 30°10' W 093°20'0 0.0
2017-Jun-06 17:30N 30°10' W 093°20'0 0.0
2017-Jun-06 17:00N 30°10' W 093°20'0 0.0
2017-Jun-06 16:30N 30°10' W 093°20'0 0.0
2017-Jun-06 16:00N 30°10' W 093°20'0 0.0
2017-Jun-06 15:30N 30°10' W 093°20'0 0.0
2017-Jun-06 15:00N 30°10' W 093°20'0 0.0
2017-Jun-06 14:30N 30°10' W 093°20'0 0.0
2017-Jun-06 14:00N 30°10' W 093°20'0 0.0
2017-Jun-06 13:30N 30°10' W 093°20'0 0.0
2017-Jun-06 13:00N 30°10' W 093°20'0 0.0
2017-Jun-06 12:30N 30°10' W 093°20'0 0.0
2017-Jun-06 12:00N 30°10' W 093°20'0 0.0
2017-Jun-06 11:30N 30°10' W 093°20'0 0.0
2017-Jun-06 11:00N 30°10' W 093°20'0 0.0
2017-Jun-06 10:30N 30°10' W 093°20'0 0.0
2017-Jun-06 10:00N 30°10' W 093°20'0 0.0
2017-Jun-06 09:30N 30°10' W 093°20'0 0.0
2017-Jun-06 09:00N 30°10' W 093°20'0 0.0
2017-Jun-06 08:30N 30°10' W 093°20'0 0.0
2017-Jun-06 08:00N 30°10' W 093°20'0 0.0
2017-Jun-06 07:30N 30°10' W 093°20'0 0.0
2017-Jun-06 07:00N 30°10' W 093°20'0 0.0
2017-Jun-06 06:30N 30°10' W 093°20'0 0.0
2017-Jun-06 06:00N 30°10' W 093°20'0 0.0
2017-Jun-06 05:30N 30°10' W 093°20'0 0.0
2017-Jun-06 05:00N 30°10' W 093°20'0 0.0
2017-Jun-06 04:30N 30°10' W 093°20'0 0.0
2017-Jun-06 04:00N 30°10' W 093°20'0 0.0
2017-Jun-06 03:30N 30°10' W 093°20'0 0.0
2017-Jun-06 03:00N 30°10' W 093°20'0 0.0
2017-Jun-06 02:30N 30°10' W 093°20'0 0.0
2017-Jun-06 02:00N 30°10' W 093°20'0 0.0
2017-Jun-06 01:30N 30°10' W 093°20'0 0.0
2017-Jun-06 01:00N 30°10' W 093°20'0 0.0
2017-Jun-06 00:30N 30°10' W 093°20'0 0.0
2017-Jun-06 00:00N 30°10' W 093°20'0 0.0
2017-Jun-05 23:30N 30°10' W 093°20'0 0.0
2017-Jun-05 23:00N 30°10' W 093°20'0 0.0
2017-Jun-05 22:30N 30°10' W 093°20'0 0.0
2017-Jun-05 21:57N 30°10' W 093°20'0 0.0
2017-Jun-05 21:30N 30°10' W 093°20'0 0.0
2017-Jun-05 21:00N 30°10' W 093°20'0 0.0
2017-Jun-05 20:30N 30°10' W 093°20'0 0.0
2017-Jun-05 19:57N 30°10' W 093°20'0 0.0
2017-Jun-05 19:30N 30°10' W 093°20'0 0.0
2017-Jun-05 19:00N 30°10' W 093°20'0 0.0
2017-Jun-05 18:30N 30°10' W 093°20'0 0.0
2017-Jun-05 18:00N 30°10' W 093°20'0 0.0
2017-Jun-05 17:30N 30°10' W 093°20'0 0.1
2017-Jun-05 17:01N 30°09' W 093°20'1 1.8
2017-Jun-05 16:31N 30°09' W 093°20'2 4.4
2017-Jun-05 16:01N 30°06' W 093°20'2 4.8
2017-Jun-05 15:31N 30°04' W 093°20'3 5.9
2017-Jun-05 15:01N 30°01' W 093°20'2 3.3
2017-Jun-05 14:31N 29°59' W 093°20'6 5.6
2017-Jun-05 13:30N 29°54' W 093°21'3 6.4
2017-Jun-05 13:01N 29°51' W 093°21'3 5.8
2017-Jun-05 12:30N 29°48' W 093°21'3 6.4
2017-Jun-05 12:01N 29°45' W 093°20'4 7.0
2017-Jun-05 11:30N 29°41' W 093°20'24 9.1
2017-Jun-05 08:54N 29°18' W 093°12'  

Dump ship's entire track history